createdAt,value
2019-03-26T00:01:07.811Z,5.33
2019-03-26T00:06:02.542Z,5.20
2019-03-26T00:10:57.136Z,6.27
2019-03-26T00:15:51.862Z,6.57
2019-03-26T00:20:46.450Z,4.90
2019-03-26T00:25:41.048Z,7.47
2019-03-26T00:30:35.716Z,5.83
2019-03-26T00:35:30.303Z,6.40
2019-03-26T00:40:24.889Z,7.17
2019-03-26T00:45:19.480Z,5.97
2019-03-26T00:50:14.308Z,7.13
2019-03-26T00:55:21.989Z,5.47
2019-03-26T01:00:08.236Z,5.37
2019-03-26T01:05:02.906Z,6.53
2019-03-26T01:09:57.526Z,6.17
2019-03-26T01:14:52.191Z,4.50
2019-03-26T01:19:46.799Z,5.33
2019-03-26T01:24:41.402Z,4.77
2019-03-26T01:29:36.014Z,3.83
2019-03-26T01:34:30.609Z,3.93
2019-03-26T01:39:25.200Z,3.40
2019-03-26T01:44:19.784Z,5.50
2019-03-26T01:49:14.403Z,5.03
2019-03-26T01:54:08.982Z,5.27
2019-03-26T01:59:03.580Z,5.47
2019-03-26T02:03:58.199Z,5.43
2019-03-26T02:08:52.783Z,4.57
2019-03-26T02:13:47.377Z,4.10
2019-03-26T02:18:41.969Z,3.93
2019-03-26T02:23:36.572Z,5.00
2019-03-26T02:28:31.151Z,4.20
2019-03-26T02:33:25.750Z,6.03
2019-03-26T02:38:20.349Z,5.60
2019-03-26T02:43:14.943Z,5.87
2019-03-26T02:48:09.531Z,6.30
2019-03-26T02:53:08.410Z,7.73
2019-03-26T02:58:00.590Z,7.03
2019-03-26T03:02:55.190Z,7.37
2019-03-26T03:07:49.845Z,6.80
2019-03-26T03:12:44.500Z,9.17
2019-03-26T03:17:39.089Z,7.77
2019-03-26T03:22:33.689Z,9.20
2019-03-26T03:27:28.283Z,7.83
2019-03-26T03:32:22.881Z,7.10
2019-03-26T03:37:17.482Z,10.57
2019-03-26T03:42:12.075Z,8.67
2019-03-26T03:47:06.818Z,8.17
2019-03-26T03:52:04.536Z,11.47
2019-03-26T03:57:03.421Z,10.70
2019-03-26T04:01:58.005Z,8.47
2019-03-26T04:06:52.618Z,10.47
2019-03-26T04:11:47.217Z,9.43
2019-03-26T04:16:41.812Z,10.60
2019-03-26T04:21:36.397Z,10.00
2019-03-26T04:26:30.980Z,10.40
2019-03-26T04:31:25.573Z,9.90
2019-03-26T04:36:26.210Z,11.93
2019-03-26T04:41:16.498Z,10.10
2019-03-26T04:46:11.120Z,11.03
2019-03-26T04:51:05.713Z,9.57
2019-03-26T04:56:00.306Z,11.20
2019-03-26T05:00:54.903Z,10.53
2019-03-26T05:05:49.511Z,10.03
2019-03-26T05:10:44.610Z,10.00
2019-03-26T05:15:39.218Z,10.07
2019-03-26T05:20:33.829Z,10.43
2019-03-26T05:25:28.417Z,9.77
2019-03-26T05:30:23.031Z,11.00
2019-03-26T05:35:17.623Z,11.47
2019-03-26T05:40:13.925Z,9.90
2019-03-26T05:45:09.821Z,10.03
2019-03-26T05:50:07.330Z,9.67
2019-03-26T05:55:01.937Z,9.07
2019-03-26T05:59:56.525Z,9.50
2019-03-26T06:04:51.207Z,9.50
2019-03-26T06:09:45.811Z,9.10
2019-03-26T06:14:40.414Z,8.07
2019-03-26T06:19:35.023Z,7.97
2019-03-26T06:24:29.695Z,8.73
2019-03-26T06:29:25.646Z,6.57
2019-03-26T06:34:20.232Z,8.60
2019-03-26T06:39:14.884Z,8.13
2019-03-26T06:44:09.479Z,7.73
2019-03-26T06:49:04.082Z,6.27
2019-03-26T06:53:58.664Z,7.30
2019-03-26T06:58:53.255Z,7.33
2019-03-26T07:03:48.084Z,6.07
2019-03-26T07:08:43.111Z,8.20
2019-03-26T07:13:37.759Z,8.13
2019-03-26T07:18:32.488Z,8.33
2019-03-26T07:23:27.082Z,7.33
2019-03-26T07:28:21.677Z,6.83
2019-03-26T07:33:16.335Z,5.20
2019-03-26T07:38:11.292Z,5.70
2019-03-26T07:43:07.046Z,5.53
2019-03-26T07:48:01.694Z,6.10
2019-03-26T07:52:56.545Z,6.33
2019-03-26T07:57:51.748Z,7.33
2019-03-26T08:02:46.362Z,6.67
2019-03-26T08:07:41.038Z,6.70
2019-03-26T08:12:37.200Z,7.33
2019-03-26T08:17:31.793Z,6.03
2019-03-26T08:22:26.450Z,7.53
2019-03-26T08:27:21.575Z,8.03
2019-03-26T08:32:16.288Z,7.60
2019-03-26T08:37:10.974Z,8.97
2019-03-26T08:42:06.183Z,8.10
2019-03-26T08:47:01.546Z,5.50
2019-03-26T08:51:56.205Z,5.83
2019-03-26T08:56:51.209Z,6.10
2019-03-26T09:01:45.829Z,5.53
2019-03-26T09:06:40.570Z,6.93
2019-03-26T09:11:35.173Z,6.03
2019-03-26T09:16:32.686Z,3.90
2019-03-26T09:21:27.687Z,4.93
2019-03-26T09:26:22.402Z,4.83
2019-03-26T09:31:17.063Z,6.43
2019-03-26T09:36:11.785Z,4.83
2019-03-26T09:41:06.381Z,4.10
2019-03-26T09:46:00.998Z,5.03
2019-03-26T09:50:55.585Z,4.13
2019-03-26T09:55:50.276Z,5.40
2019-03-26T10:00:45.164Z,6.07
2019-03-26T10:05:39.982Z,4.83
2019-03-26T10:10:34.832Z,5.87
2019-03-26T10:15:29.435Z,7.30
2019-03-26T10:20:24.210Z,3.27
2019-03-26T10:25:18.851Z,2.37
2019-03-26T10:30:18.142Z,3.90
2019-03-26T10:35:17.457Z,3.70
2019-03-26T10:40:16.684Z,3.60
2019-03-26T10:45:11.886Z,3.13
2019-03-26T10:50:09.536Z,3.43
2019-03-26T10:55:05.833Z,3.70
2019-03-26T11:00:00.680Z,4.30
2019-03-26T11:04:56.712Z,3.77
2019-03-26T11:09:51.464Z,3.00
2019-03-26T11:14:47.267Z,4.40
2019-03-26T11:19:41.955Z,7.50
2019-03-26T11:24:36.963Z,3.57
2019-03-26T11:29:31.643Z,3.13
2019-03-26T11:34:26.228Z,3.83
2019-03-26T11:39:32.046Z,2.67
2019-03-26T11:44:17.280Z,3.00
2019-03-26T11:49:11.870Z,3.60
2019-03-26T11:54:06.515Z,3.80
2019-03-26T11:59:07.881Z,2.90
2019-03-26T12:04:10.025Z,3.13
2019-03-26T12:09:07.919Z,5.73
2019-03-26T12:14:02.493Z,2.77
2019-03-26T12:18:59.291Z,4.57
2019-03-26T12:23:53.889Z,4.33
2019-03-26T12:28:48.485Z,4.97
2019-03-26T12:33:44.032Z,10.60
2019-03-26T12:38:38.709Z,3.00
2019-03-26T12:43:33.301Z,5.23
2019-03-26T12:48:28.090Z,3.97
2019-03-26T12:53:22.734Z,4.77
2019-03-26T12:58:30.669Z,3.53
2019-03-26T13:03:14.429Z,2.97
2019-03-26T13:08:09.399Z,3.23
2019-03-26T13:13:04.246Z,3.90
2019-03-26T13:18:00.562Z,6.17
2019-03-26T13:22:55.182Z,10.10
2019-03-26T13:27:49.797Z,3.00
2019-03-26T13:32:44.498Z,4.97
2019-03-26T13:37:39.098Z,3.07
2019-03-26T13:42:33.942Z,3.80
2019-03-26T13:47:28.902Z,12.27
2019-03-26T13:52:23.572Z,5.17
2019-03-26T13:57:18.192Z,10.83
2019-03-26T14:02:12.787Z,6.07
2019-03-26T14:07:07.402Z,4.93
2019-03-26T14:12:01.997Z,4.77
2019-03-26T14:16:56.661Z,6.97
2019-03-26T14:21:52.384Z,4.50
2019-03-26T14:26:51.089Z,4.70
2019-03-26T14:31:45.833Z,6.17
2019-03-26T14:36:40.523Z,4.10
2019-03-26T14:41:35.144Z,7.30
2019-03-26T14:46:29.811Z,5.90
2019-03-26T14:51:24.466Z,3.80
2019-03-26T14:56:19.118Z,3.30
2019-03-26T15:01:13.751Z,4.00
2019-03-26T15:06:09.543Z,4.17
2019-03-26T15:11:08.794Z,4.90
2019-03-26T15:16:03.706Z,3.70
2019-03-26T15:20:59.467Z,4.07
2019-03-26T15:25:54.062Z,7.70
2019-03-26T15:30:48.783Z,4.03
2019-03-26T15:35:48.107Z,4.37
2019-03-26T15:40:43.316Z,8.13
2019-03-26T15:45:38.273Z,19.13
2019-03-26T15:50:44.577Z,10.43
2019-03-26T15:55:39.913Z,5.13
2019-03-26T16:00:34.712Z,7.70
2019-03-26T16:05:29.691Z,5.03
2019-03-26T16:10:24.850Z,4.77
2019-03-26T16:15:19.500Z,5.60
2019-03-26T16:20:19.712Z,3.50
2019-03-26T16:25:15.742Z,5.97
2019-03-26T16:30:13.001Z,4.20
2019-03-26T16:35:08.377Z,4.03
2019-03-26T16:40:03.053Z,5.07
2019-03-26T16:44:57.769Z,3.90
2019-03-26T16:49:52.398Z,4.77
2019-03-26T16:54:46.985Z,3.73
2019-03-26T16:59:41.592Z,5.63
2019-03-26T17:04:36.199Z,6.53
2019-03-26T17:09:30.902Z,4.73
2019-03-26T17:14:25.519Z,4.63
2019-03-26T17:19:20.091Z,3.93
2019-03-26T17:24:14.711Z,5.33
2019-03-26T17:29:09.378Z,6.13
2019-03-26T17:34:04.012Z,4.53
2019-03-26T17:38:58.586Z,4.70
2019-03-26T17:43:53.181Z,3.60
2019-03-26T17:48:47.748Z,5.30
2019-03-26T17:53:42.351Z,4.57
2019-03-26T17:58:36.930Z,4.23
2019-03-26T18:03:31.663Z,3.80
2019-03-26T18:08:26.239Z,3.17
2019-03-26T18:13:20.838Z,6.27
2019-03-26T18:18:15.402Z,4.97
2019-03-26T18:23:10.003Z,7.30
2019-03-26T18:28:04.736Z,5.30
2019-03-26T18:32:59.341Z,9.73
2019-03-26T18:37:53.918Z,7.57
2019-03-26T18:42:48.533Z,6.90
2019-03-26T18:47:43.239Z,8.27
2019-03-26T18:52:37.848Z,7.33
2019-03-26T18:57:32.463Z,8.10
2019-03-26T19:02:27.075Z,6.47
2019-03-26T19:07:21.779Z,4.93
2019-03-26T19:12:16.451Z,4.40
2019-03-26T19:17:11.057Z,8.47
2019-03-26T19:22:05.688Z,7.17
2019-03-26T19:27:00.323Z,6.33
2019-03-26T19:31:55.063Z,5.50
2019-03-26T19:36:49.732Z,6.33
2019-03-26T19:41:44.419Z,4.70
2019-03-26T19:46:39.985Z,5.00
2019-03-26T19:51:34.690Z,5.30
2019-03-26T19:56:29.454Z,7.67
2019-03-26T20:01:24.222Z,6.60
2019-03-26T20:06:19.045Z,5.80
2019-03-26T20:11:15.428Z,5.73
2019-03-26T20:16:10.378Z,4.80
2019-03-26T20:21:05.228Z,7.83
2019-03-26T20:25:59.953Z,4.13
2019-03-26T20:30:54.764Z,4.40
2019-03-26T20:35:49.501Z,5.03
2019-03-26T20:40:44.163Z,5.17
2019-03-26T20:45:38.814Z,5.80
2019-03-26T20:50:33.439Z,5.43
2019-03-26T20:55:33.548Z,4.83
2019-03-26T21:00:38.251Z,5.93
2019-03-26T21:05:32.913Z,7.77
2019-03-26T21:10:27.545Z,8.00
2019-03-26T21:15:22.188Z,11.80
2019-03-26T21:20:16.847Z,8.20
2019-03-26T21:25:11.785Z,10.13
2019-03-26T21:30:15.095Z,9.73
2019-03-26T21:35:08.542Z,19.70
2019-03-26T21:40:03.170Z,16.10
2019-03-26T21:44:57.769Z,16.50
2019-03-26T21:49:52.370Z,13.70
2019-03-26T21:54:46.979Z,14.93
2019-03-26T21:59:41.580Z,18.20
2019-03-26T22:04:36.193Z,14.33
2019-03-26T22:09:30.787Z,19.60
2019-03-26T22:14:25.377Z,13.80
2019-03-26T22:19:28.405Z,12.93
2019-03-26T22:24:17.312Z,15.43
2019-03-26T22:29:12.068Z,18.83
2019-03-26T22:34:06.684Z,18.97
2019-03-26T22:39:01.297Z,20.50
2019-03-26T22:43:55.903Z,16.60
2019-03-26T22:48:50.512Z,22.50
2019-03-26T22:53:45.118Z,19.87
2019-03-26T22:58:39.718Z,20.60
2019-03-26T23:03:34.333Z,17.90
2019-03-26T23:08:28.983Z,17.17
2019-03-26T23:13:23.613Z,23.20
2019-03-26T23:18:18.326Z,20.93
2019-03-26T23:23:12.903Z,18.53
2019-03-26T23:28:07.493Z,19.07
2019-03-26T23:33:02.198Z,24.80
2019-03-26T23:37:56.857Z,19.67
2019-03-26T23:42:51.455Z,19.27
2019-03-26T23:47:46.028Z,19.17
2019-03-26T23:52:40.633Z,19.03
2019-03-26T23:57:37.372Z,19.83
